METAR Data
IDs: Format: Raw Decoded Include TAF

Data at: 0514 UTC 24 Sep 2018

KGIF 240453Z AUTO 07005KT 10SM CLR 26/23 A3004 RMK AO2 SLP168 T02610228 403280244
KGIF 240353Z AUTO 08007KT 10SM CLR 27/23 A3004 RMK AO2 SLP167 T02670228
KGIF 240253Z AUTO 08007KT 10SM CLR 27/23 A3004 RMK AO2 SLP170 T02670233 51019
KGIF 240153Z AUTO 08008KT 10SM CLR 27/23 A3002 RMK AO2 SLP163 T02720228
KGIF 240053Z AUTO 09007KT 10SM CLR 28/23 A3001 RMK AO2 SLP159 T02780228
KGIF 232353Z AUTO 10007KT 10SM CLR 29/22 A2998 RMK AO2 SLP151 T02890222 10328 20289 53010
KGIF 232253Z AUTO 10011KT 10SM CLR 29/23 A2997 RMK AO2 SLP145 T02940228
KGIF 232153Z AUTO 11011KT 10SM CLR 31/23 A2996 RMK AO2 SLP143 T03110228
KGIF 232053Z AUTO 10013KT 10SM FEW035 32/22 A2996 RMK AO2 SLP141 T03170222 56018
KGIF 231953Z AUTO 09013KT 10SM CLR 32/23 A2997 RMK AO2 SLP144 T03220233
KGIF 231853Z AUTO 10013KT 10SM CLR 33/23 A2999 RMK AO2 SLP152 T03280233
KGIF 231753Z AUTO 10011KT 10SM CLR 32/24 A3001 RMK AO2 LTG DSNT SE SLP159 T03170239 10322 20256 58013
KGIF 231653Z AUTO 09010KT 10SM FEW026 32/24 A3003 RMK AO2 SLP166 T03170244
KGIF 231553Z AUTO 06010KT 10SM SCT023 SCT028 BKN036 31/24 A3005 RMK AO2 SLP171 T03060244
KGIF 231543Z AUTO 05011KT 10SM BKN023 BKN037 BKN055 30/24 A3005 RMK AO2 T03000244
KGIF 231518Z AUTO 06008KT 10SM SCT021 BKN030 BKN037 31/24 A3004 RMK AO2 LTG DSNT NE T03110244
KGIF 231453Z AUTO 11009KT 10SM BKN019 BKN026 30/24 A3005 RMK AO2 SLP173 T03000244 51013
KGIF 231445Z AUTO 07007KT 10SM BKN019 BKN026 29/24 A3005 RMK AO2 T02940239
KGIF 231353Z AUTO 08008KT 10SM CLR 27/24 A3004 RMK AO2 SLP170 T02720239
KGIF 231253Z AUTO 07006KT 10SM FEW022 27/24 A3003 RMK AO2 SLP165 T02670244
KGIF 231205Z AUTO 00000KT 10SM SCT025 26/24 A3001 RMK AO2 T02560244
KGIF 231153Z AUTO 01003KT 10SM BKN025 26/24 A3001 RMK AO2 SLP159 T02560239 10256 20244 53010
KGIF 231138Z AUTO 00000KT 10SM BKN023 25/24 A3001 RMK AO2 T02500239
KGIF 231053Z AUTO 00000KT 10SM CLR 24/23 A2999 RMK AO2 SLP151 T02440233
KGIF 230953Z AUTO 08003KT 10SM CLR 25/23 A2998 RMK AO2 SLP149 T02500233
KGIF 230853Z AUTO 07004KT 10SM CLR 25/23 A2998 RMK AO2 SLP148 T02500233 56013
KGIF 230753Z AUTO 06005KT 10SM CLR 26/24 A2999 RMK AO2 SLP151 T02560239
KGIF 230653Z AUTO 04003KT 10SM CLR 25/24 A3000 RMK AO2 SLP155 T02500239
KGIF 230553Z AUTO 04004KT 10SM CLR 26/24 A3002 RMK AO2 SLP161 T02560239 10283 20256 58002
KGIF 230453Z AUTO 05003KT 10SM BKN090 26/24 A3003 RMK AO2 SLP168 T02560239 403330244
KGIF 230353Z AUTO 11005KT 10SM CLR 27/24 A3004 RMK AO2 SLP169 T02670239
KGIF 230253Z AUTO 08007KT 10SM CLR 27/23 A3002 RMK AO2 SLP163 T02670233 53009
KGIF 230153Z AUTO 09009KT 10SM CLR 27/23 A3002 RMK AO2 SLP162 T02720233
KGIF 230053Z AUTO 08009KT 10SM FEW075 28/23 A2999 RMK AO2 SLP154 T02780228
KGIF 222353Z AUTO 12007KT 10SM CLR 28/22 A3000 RMK AO2 SLP156 T02830222 10333 20283 53003
KGIF 222253Z AUTO 08008KT 10SM CLR 29/21 A2999 RMK AO2 SLP152 T02940206
KGIF 222153Z AUTO 08013KT 10SM CLR 32/20 A2999 RMK AO2 SLP152 T03170200
KGIF 222053Z AUTO 08012KT 10SM FEW049 33/21 A2999 RMK AO2 SLP152 T03280206 56013
KGIF 221953Z AUTO 09010KT 10SM FEW043 32/21 A2999 RMK AO2 SLP154 T03220206
KGIF 221853Z AUTO 10011KT 10SM FEW043 32/21 A3000 RMK AO2 SLP155 T03220211
KGIF 221753Z AUTO 09014KT 10SM FEW040 32/22 A3003 RMK AO2 SLP166 T03170217 10322 20250 58014